Time;durP1;ratioP1;P1;durP2;ratioP2;P2;SDS_P1;SDS_P2;PMS_P1;PMS_P2;Temp;Humidity;BMP_temperature;BMP_pressure;BME280_temperature;BME280_humidity;BME280_pressure;Samples;Min_cycle;Max_cycle;Signal;HPM_P1;HPM_P2
2021/04/06 00:01:59;;;;;;;40.43;24.00;;;;;;;6.39;76.81;94107.19;5053170;28;20425;-78
2021/04/06 00:04:29;;;;;;;34.17;22.83;;;;;;;6.39;77.50;94107.19;5052772;28;20942;-78
2021/04/06 00:06:59;;;;;;;38.70;23.20;;;;;;;6.34;76.81;94094.50;5052905;28;20516;-78
2021/04/06 00:09:29;;;;;;;39.57;22.27;;;;;;;6.33;76.64;94089.41;5052960;28;20825;-78
2021/04/06 00:11:58;;;;;;;34.40;22.77;;;;;;;6.29;76.75;94096.66;5017707;28;20437;-78
2021/04/06 00:14:27;;;;;;;41.90;25.70;;;;;;;6.26;77.19;94089.09;5052947;28;20461;-78
2021/04/06 00:16:55;;;;;;;41.07;24.83;;;;;;;6.17;76.29;94084.63;5056017;28;20429;-78
2021/04/06 00:19:24;;;;;;;38.50;25.50;;;;;;;6.09;77.61;94082.66;5056726;28;20803;-78
2021/04/06 00:21:53;;;;;;;44.40;23.87;;;;;;;6.07;77.92;94068.06;5056400;28;20436;-78
2021/04/06 00:24:22;;;;;;;40.73;25.87;;;;;;;6.06;77.29;94069.84;5056139;28;20453;-78
2021/04/06 00:26:52;;;;;;;42.63;24.13;;;;;;;6.03;77.89;94070.09;5055860;28;20429;-78
2021/04/06 00:29:20;;;;;;;41.53;24.10;;;;;;;6.06;77.96;94051.63;5056038;28;20453;-78
2021/04/06 00:31:48;;;;;;;36.90;24.40;;;;;;;6.07;77.99;94055.91;5056595;28;20422;-78
2021/04/06 00:34:17;;;;;;;35.70;23.93;;;;;;;6.06;77.02;94056.84;5055542;28;20992;-78
2021/04/06 00:36:44;;;;;;;33.57;23.90;;;;;;;6.06;77.26;94050.78;5055664;28;20439;-78
2021/04/06 00:39:12;;;;;;;37.70;24.57;;;;;;;6.04;77.21;94053.53;5055746;28;20429;-78
2021/04/06 00:41:39;;;;;;;40.97;24.17;;;;;;;6.03;77.50;94038.84;5055489;28;20429;-78
2021/04/06 00:54:14;;;;;;;40.80;24.67;;;;;;;5.51;78.80;94016.97;5055966;28;20492;-78
2021/04/06 00:56:41;;;;;;;40.13;24.43;;;;;;;5.55;79.51;94014.97;5055764;28;20520;-79
2021/04/06 00:59:09;;;;;;;44.90;27.40;;;;;;;5.55;78.62;94015.78;5037056;28;20444;-78
2021/04/06 01:01:39;;;;;;;56.17;30.40;;;;;;;5.42;79.62;94019.47;5055061;28;20800;-79
2021/04/06 01:04:08;;;;;;;46.77;28.93;;;;;;;5.42;79.64;94022.88;5054618;28;20444;-79
2021/04/06 01:06:53;;;;;;;53.23;30.60;;;;;;;5.02;80.87;94021.75;5055006;28;20445;-78
2021/04/06 01:09:30;;;;;;;47.37;28.80;;;;;;;5.08;81.97;94029.06;5055245;28;20441;-78
2021/04/06 01:11:57;;;;;;;48.40;29.27;;;;;;;5.10;80.96;94030.59;5054630;28;20459;-78
2021/04/06 01:14:23;;;;;;;49.63;27.90;;;;;;;5.15;80.94;94022.44;5054704;28;20860;-78
2021/04/06 01:16:51;;;;;;;51.60;28.67;;;;;;;5.23;80.88;94027.88;5055066;28;20929;-79
2021/04/06 01:19:18;;;;;;;52.83;25.23;;;;;;;5.28;80.92;94020.56;5055344;28;20441;-78
2021/04/06 01:21:46;;;;;;;34.57;20.83;;;;;;;5.34;79.95;94014.03;5054825;28;20445;-78
2021/04/06 01:24:14;;;;;;;29.30;19.23;;;;;;;5.37;79.74;94001.63;5037340;28;20448;-78
2021/04/06 01:26:41;;;;;;;28.63;17.90;;;;;;;5.36;79.03;93999.97;5054209;28;20499;-78
2021/04/06 01:29:07;;;;;;;26.40;18.27;;;;;;;5.34;78.66;93991.44;5054793;28;20436;-79
2021/04/06 01:31:34;;;;;;;39.13;19.17;;;;;;;5.35;78.94;94003.50;5055229;28;20521;-79
2021/04/06 01:34:03;;;;;;;24.53;16.13;;;;;;;5.33;78.88;93994.19;5054957;28;20473;-78
2021/04/06 01:36:29;;;;;;;20.73;11.90;;;;;;;5.31;78.33;94001.28;5054854;28;20499;-78
2021/04/06 01:38:56;;;;;;;23.37;13.80;;;;;;;5.24;79.31;94001.75;5054305;28;20488;-78
2021/04/06 01:41:23;;;;;;;28.17;18.63;;;;;;;5.18;79.60;93999.63;5055125;28;20442;-78
2021/04/06 01:43:50;;;;;;;25.33;17.60;;;;;;;5.21;79.62;93999.41;5055110;28;20429;-79
2021/04/06 01:46:30;;;;;;;22.73;14.40;;;;;;;5.22;78.91;93997.63;5054437;28;20429;-79
2021/04/06 01:48:57;;;;;;;19.20;13.77;;;;;;;5.19;79.78;93990.88;5054438;28;20441;-79
2021/04/06 01:51:23;;;;;;;26.37;15.00;;;;;;;5.20;79.61;93995.16;5054954;28;20429;-78
2021/04/06 01:53:50;;;;;;;24.00;14.20;;;;;;;5.18;79.75;93978.81;5054002;28;20489;-78
2021/04/06 01:56:26;;;;;;;15.07;12.50;;;;;;;5.23;79.14;93989.72;5054957;28;20433;-78
2021/04/06 01:58:58;;;;;;;26.83;14.80;;;;;;;5.14;80.06;94000.81;5054080;28;21003;-78
2021/04/06 02:01:25;;;;;;;24.73;15.23;;;;;;;5.04;80.54;93999.88;5054901;28;20494;-78
2021/04/06 02:03:57;;;;;;;21.53;15.87;;;;;;;5.07;81.05;93991.00;5054518;28;20454;-78
2021/04/06 02:06:24;;;;;;;20.40;13.77;;;;;;;5.06;81.16;93981.56;5019395;28;20441;-78
2021/04/06 02:08:52;;;;;;;23.53;15.23;;;;;;;5.08;82.05;93982.25;5054159;28;20932;-78
2021/04/06 02:11:24;;;;;;;26.67;14.27;;;;;;;5.13;82.36;93980.94;5054191;28;20937;-78
2021/04/06 02:13:51;;;;;;;19.47;14.07;;;;;;;5.20;80.83;93983.88;5053790;28;20487;-78
2021/04/06 02:16:18;;;;;;;22.53;13.20;;;;;;;5.23;81.63;93979.31;5053685;28;20800;-78
2021/04/06 02:18:52;;;;;;;15.17;11.93;;;;;;;5.27;80.70;93975.50;5054501;28;20456;-78
2021/04/06 02:21:26;;;;;;;17.30;12.20;;;;;;;5.28;79.51;93976.34;5053634;28;20446;-78
2021/04/06 02:23:53;;;;;;;16.30;11.90;;;;;;;5.26;80.12;93973.84;5053642;28;20435;-78
2021/04/06 02:26:22;;;;;;;16.80;10.57;;;;;;;5.33;80.20;93968.16;5054053;28;20437;-78
2021/04/06 02:28:53;;;;;;;19.00;11.73;;;;;;;5.37;79.47;93974.78;5053643;28;20788;-78
2021/04/06 02:31:22;;;;;;;17.00;12.00;;;;;;;5.41;79.60;93977.00;5053566;28;20437;-78
2021/04/06 02:33:48;;;;;;;13.80;11.33;;;;;;;5.45;79.32;93980.19;5053403;28;20465;-78
2021/04/06 02:36:15;;;;;;;16.87;12.40;;;;;;;5.47;79.82;93973.09;5053962;28;20779;-78
2021/04/06 02:38:43;;;;;;;16.87;11.57;;;;;;;5.46;79.61;93979.25;5017706;28;20880;-78
2021/04/06 02:41:12;;;;;;;18.13;11.93;;;;;;;5.42;80.04;93978.66;5053264;28;20429;-78
2021/04/06 02:43:47;;;;;;;20.27;12.60;;;;;;;5.44;79.58;93968.13;5053325;28;20441;-78
2021/04/06 02:46:16;;;;;;;13.70;11.80;;;;;;;5.44;80.87;93970.72;5054117;28;20436;-78
2021/04/06 02:48:43;;;;;;;14.63;11.80;;;;;;;5.42;79.72;93973.47;5053163;28;20852;-78
2021/04/06 02:51:10;;;;;;;17.97;12.77;;;;;;;5.39;80.62;93968.50;5068441;28;20817;-79
2021/04/06 02:53:39;;;;;;;23.63;12.07;;;;;;;5.34;79.99;93969.81;5053695;28;20469;-78
2021/04/06 02:56:06;;;;;;;19.97;13.00;;;;;;;5.37;80.64;93972.16;5053077;28;20468;-78
2021/04/06 02:58:39;;;;;;;16.03;13.13;;;;;;;5.35;81.32;93972.28;5035275;28;20499;-78
2021/04/06 03:01:16;;;;;;;20.20;14.00;;;;;;;5.32;80.89;93972.53;5053583;28;20437;-78
2021/04/06 03:03:43;;;;;;;23.77;12.90;;;;;;;5.28;80.45;93973.72;5053610;28;20464;-78
2021/04/06 03:06:11;;;;;;;15.40;11.83;;;;;;;5.29;80.71;93972.78;5018553;28;20453;-78
2021/04/06 03:08:39;;;;;;;15.07;10.40;;;;;;;5.24;80.64;93967.13;5053309;28;20434;-78
2021/04/06 03:11:07;;;;;;;17.73;11.60;;;;;;;5.25;79.74;93961.81;5053522;28;20858;-78
2021/04/06 03:13:33;;;;;;;17.67;12.33;;;;;;;5.22;79.65;93956.84;5034895;28;20488;-78
2021/04/06 03:16:02;;;;;;;28.80;17.03;;;;;;;5.20;80.01;93956.16;5053736;28;20437;-78
2021/04/06 03:18:37;;;;;;;25.13;13.73;;;;;;;5.14;78.91;93964.41;5053683;28;20441;-78
2021/04/06 03:21:06;;;;;;;14.07;10.40;;;;;;;5.01;79.91;93957.69;5053582;28;20453;-78
2021/04/06 03:23:33;;;;;;;19.27;11.47;;;;;;;4.74;80.84;93956.28;5053401;28;20429;-78
2021/04/06 03:26:02;;;;;;;18.10;12.70;;;;;;;4.76;80.72;93957.00;5053182;28;20495;-78
2021/04/06 03:28:32;;;;;;;18.20;12.10;;;;;;;4.71;80.36;93955.69;5053554;28;21125;-78
2021/04/06 03:31:10;;;;;;;17.10;11.73;;;;;;;4.72;80.64;93947.78;5052971;28;20441;-78
2021/04/06 03:33:42;;;;;;;13.63;10.47;;;;;;;4.72;81.73;93940.00;5067681;28;21015;-79
2021/04/06 03:36:18;;;;;;;13.30;10.10;;;;;;;4.74;82.05;93951.09;5068098;28;20471;-78
2021/04/06 03:38:45;;;;;;;17.40;11.60;;;;;;;4.77;82.03;93944.81;5053913;28;20542;-78
2021/04/06 03:41:12;;;;;;;11.73;10.27;;;;;;;4.79;82.38;93943.75;5053202;28;20449;-78
2021/04/06 03:43:41;;;;;;;13.90;11.00;;;;;;;4.88;83.16;93939.63;5053368;28;20472;-79
2021/04/06 03:46:08;;;;;;;15.27;10.63;;;;;;;4.93;83.57;93945.31;5053259;28;20441;-78
2021/04/06 03:48:36;;;;;;;18.47;11.40;;;;;;;4.93;83.18;93943.53;5053605;28;20468;-78
2021/04/06 03:51:05;;;;;;;16.57;9.90;;;;;;;5.01;83.03;93947.28;5056665;28;20791;-78
2021/04/06 03:53:39;;;;;;;18.90;11.67;;;;;;;5.04;83.05;93947.06;5057239;28;20440;-78
2021/04/06 03:56:08;;;;;;;14.70;12.20;;;;;;;5.03;83.61;93948.00;5056898;28;20458;-78
2021/04/06 03:58:40;;;;;;;16.30;11.47;;;;;;;4.56;83.39;93945.53;5071330;28;20523;-78
2021/04/06 04:01:07;;;;;;;22.87;12.67;;;;;;;4.47;83.47;93945.41;5056967;28;20453;-79
2021/04/06 04:03:34;;;;;;;20.80;12.13;;;;;;;4.41;82.73;93943.28;5056521;28;20785;-79
2021/04/06 04:06:00;;;;;;;20.30;10.63;;;;;;;4.38;83.29;93943.53;5056626;28;20445;-78
2021/04/06 04:08:27;;;;;;;16.03;11.60;;;;;;;4.36;83.05;93946.22;5056499;28;20533;-78
2021/04/06 04:10:54;;;;;;;37.80;24.03;;;;;;;4.39;84.11;93942.56;5056633;28;20448;-78
2021/04/06 04:13:20;;;;;;;44.47;26.77;;;;;;;4.48;84.06;93952.25;5056573;28;20487;-76
2021/04/06 04:15:47;;;;;;;44.17;25.67;;;;;;;4.85;89.30;93948.47;5068891;28;20440;-78
2021/04/06 04:18:14;;;;;;;48.27;28.00;;;;;;;4.93;83.25;93953.09;5076902;28;20471;-78
2021/04/06 04:20:40;;;;;;;45.40;24.57;;;;;;;5.15;83.57;93952.22;5076394;28;20429;-78
2021/04/06 04:23:07;;;;;;;34.70;20.93;;;;;;;5.78;82.79;93950.63;5041667;28;20440;-78
2021/04/06 04:25:34;;;;;;;48.77;25.30;;;;;;;6.44;78.70;93954.72;5076357;28;20463;-78
2021/04/06 04:28:00;;;;;;;33.00;19.37;;;;;;;7.23;81.09;93954.06;5076160;28;20444;-78
2021/04/06 04:30:38;;;;;;;40.47;24.27;;;;;;;7.87;72.25;93954.50;5076849;28;20440;-79
2021/04/06 04:33:06;;;;;;;50.37;28.03;;;;;;;8.45;69.19;93961.50;5057365;28;20441;-78
2021/04/06 04:35:33;;;;;;;47.30;27.73;;;;;;;8.97;66.95;93955.72;5040887;28;20511;-78
2021/04/06 04:37:59;;;;;;;46.27;26.63;;;;;;;9.61;64.61;93959.28;5076480;28;20489;-78
2021/04/06 04:40:26;;;;;;;44.10;26.37;;;;;;;10.19;63.27;93957.06;5076132;28;20497;-78
2021/04/06 04:42:54;;;;;;;36.80;25.00;;;;;;;10.62;60.59;93949.38;5076032;28;20903;-78
2021/04/06 04:45:22;;;;;;;37.70;25.43;;;;;;;10.97;59.41;93944.03;5075964;28;20436;-77
2021/04/06 04:47:48;;;;;;;35.07;22.53;;;;;;;11.41;57.82;93946.53;5075467;28;20455;-79
2021/04/06 04:50:16;;;;;;;33.13;22.30;;;;;;;11.56;56.31;93944.13;5075479;28;20450;-84
2021/04/06 04:52:44;;;;;;;31.87;22.00;;;;;;;11.87;56.62;93936.53;5076212;28;20436;-79
2021/04/06 04:55:12;;;;;;;32.93;22.57;;;;;;;12.23;55.77;93943.16;5075458;28;20501;-79
2021/04/06 04:57:38;;;;;;;29.40;21.40;;;;;;;12.60;53.90;93945.31;5036953;28;21007;-78
2021/04/06 05:00:07;;;;;;;27.03;20.00;;;;;;;12.71;53.50;93937.06;5054521;28;20444;-79
2021/04/06 05:02:34;;;;;;;31.30;19.70;;;;;;;12.93;53.71;93940.00;5055671;28;20499;-80
2021/04/06 05:05:00;;;;;;;29.43;20.57;;;;;;;13.08;53.18;93932.25;5057665;28;20434;-79
2021/04/06 05:07:27;;;;;;;27.97;18.80;;;;;;;13.36;54.17;93922.97;5075808;28;20440;-79
2021/04/06 05:09:53;;;;;;;37.23;23.93;;;;;;;13.71;53.45;93923.47;5075404;28;20448;-80
2021/04/06 05:12:19;;;;;;;29.87;20.03;;;;;;;13.91;51.28;93933.41;5074931;28;20442;-78
2021/04/06 05:14:46;;;;;;;21.33;15.30;;;;;;;13.90;50.40;93923.03;5074744;28;20475;-78
2021/04/06 05:17:14;;;;;;;23.53;16.80;;;;;;;13.78;50.17;93917.31;5074612;28;20887;-77
2021/04/06 05:19:40;;;;;;;19.17;15.23;;;;;;;13.74;51.13;93918.66;5075483;28;20435;-88
2021/04/06 05:22:07;;;;;;;22.97;16.13;;;;;;;13.82;50.90;93928.34;5075130;28;20453;-80
2021/04/06 05:24:34;;;;;;;23.20;14.73;;;;;;;13.94;50.63;93929.59;5075105;28;20439;-79
2021/04/06 05:27:01;;;;;;;20.50;13.63;;;;;;;14.09;49.94;93927.03;5073955;28;20830;-76
2021/04/06 05:29:28;;;;;;;18.33;14.03;;;;;;;14.25;58.70;93924.28;5074854;28;20780;-79
2021/04/06 05:31:54;;;;;;;19.17;14.97;;;;;;;14.46;50.46;93915.75;5075318;28;20511;-79
2021/04/06 05:34:21;;;;;;;17.00;14.33;;;;;;;14.61;49.59;93919.25;5074767;28;20476;-79
2021/04/06 05:36:48;;;;;;;15.90;12.90;;;;;;;14.71;49.13;93922.44;5074503;28;20793;-78
2021/04/06 05:39:15;;;;;;;16.73;13.03;;;;;;;14.93;48.66;93918.13;5074878;28;20932;-79
2021/04/06 05:45:40;;;;;;;13.87;12.17;;;;;;;15.40;46.58;93923.06;5074445;28;20399;-79
2021/04/06 05:48:12;;;;;;;20.07;14.70;;;;;;;14.96;47.00;93916.94;5074454;28;20906;-79
2021/04/06 05:50:44;;;;;;;19.70;13.90;;;;;;;14.31;49.05;93925.38;5074530;28;20441;-78
2021/04/06 05:53:11;;;;;;;17.60;13.20;;;;;;;14.47;50.13;93926.13;5074512;28;20942;-79
2021/04/06 05:55:37;;;;;;;12.63;10.30;;;;;;;14.59;48.31;93918.59;5073975;28;20568;-79
2021/04/06 05:58:04;;;;;;;12.07;10.00;;;;;;;14.44;49.28;93920.34;5074510;28;20440;-78
2021/04/06 06:00:30;;;;;;;12.20;10.10;;;;;;;14.69;48.73;93908.59;5074339;28;20437;-79
2021/04/06 06:02:57;;;;;;;11.20;9.77;;;;;;;14.90;48.26;93905.28;5073989;28;20501;-78
2021/04/06 06:05:24;;;;;;;12.10;10.90;;;;;;;14.88;48.18;93902.00;5073923;28;20445;-78
2021/04/06 06:07:51;;;;;;;21.00;14.00;;;;;;;14.85;47.67;93902.34;5074256;28;20458;-79
2021/04/06 06:10:29;;;;;;;20.97;14.60;;;;;;;14.72;48.04;93902.94;5074494;28;20450;-78
2021/04/06 06:13:14;;;;;;;17.63;13.60;;;;;;;14.56;48.64;93896.00;5074002;28;20443;-79
2021/04/06 06:15:40;;;;;;;18.93;13.40;;;;;;;14.64;49.64;93895.13;5073919;28;20486;-78
2021/04/06 06:18:07;;;;;;;15.10;12.43;;;;;;;14.91;48.38;93899.00;5073534;28;20448;-78
2021/04/06 06:20:34;;;;;;;14.33;11.87;;;;;;;15.35;47.34;93891.09;5038520;28;20446;-78
2021/04/06 06:23:20;;;;;;;17.37;12.00;;;;;;;15.28;46.23;93882.22;5074082;28;20453;-78
2021/04/06 06:26:13;;;;;;;18.63;11.20;;;;;;;15.29;46.92;93885.69;5074092;28;20440;-79
2021/04/06 06:28:40;;;;;;;15.60;11.00;;;;;;;15.35;47.01;93877.03;5031394;28;20505;-78
2021/04/06 06:31:07;;;;;;;13.83;11.60;;;;;;;15.65;46.75;93875.22;5031776;28;20443;-78
2021/04/06 06:33:35;;;;;;;16.53;12.57;;;;;;;16.05;45.90;93882.56;4998174;28;21235;-78
2021/04/06 06:36:04;;;;;;;16.63;12.37;;;;;;;16.27;44.98;93882.56;5031240;28;20427;-78
2021/04/06 06:38:35;;;;;;;21.50;12.90;;;;;;;16.50;44.84;93888.50;5018313;28;20886;-78
2021/04/06 06:41:13;;;;;;;23.47;13.70;;;;;;;16.90;44.14;93884.34;5020491;28;20440;-78
2021/04/06 06:43:41;;;;;;;15.13;11.27;;;;;;;17.17;43.10;93865.97;5031557;28;20517;-78
2021/04/06 06:46:17;;;;;;;19.80;13.20;;;;;;;17.02;42.99;93866.06;5031594;28;20442;-78
2021/04/06 06:48:53;;;;;;;18.07;13.30;;;;;;;16.70;43.72;93860.34;5031380;28;20431;-78
2021/04/06 06:51:20;;;;;;;14.73;13.10;;;;;;;16.55;44.08;93858.78;5031338;28;20445;-77
2021/04/06 06:53:47;;;;;;;20.17;13.70;;;;;;;16.56;44.00;93861.25;5031620;28;20534;-78
2021/04/06 06:56:14;;;;;;;19.57;14.33;;;;;;;16.19;44.51;93856.22;5031556;28;20518;-78
2021/04/06 06:58:42;;;;;;;13.73;11.87;;;;;;;16.10;45.21;93851.06;5031279;28;20503;-78
2021/04/06 07:01:21;;;;;;;16.30;12.93;;;;;;;16.24;44.65;93845.91;5031326;28;20456;-78
2021/04/06 07:04:01;;;;;;;13.40;11.00;;;;;;;16.26;44.91;93859.75;5031006;28;20426;-78
2021/04/06 07:06:27;;;;;;;15.00;12.40;;;;;;;16.27;45.07;93854.28;5066963;28;20445;-77
2021/04/06 07:08:55;;;;;;;13.47;11.57;;;;;;;15.97;45.12;93845.66;5073665;28;20447;-77
2021/04/06 07:11:22;;;;;;;17.93;10.90;;;;;;;15.98;45.77;93841.16;5073565;28;20456;-77
2021/04/06 07:13:51;;;;;;;14.47;10.43;;;;;;;16.26;45.87;93844.69;5072867;28;20446;-78
2021/04/06 07:16:19;;;;;;;11.30;10.10;;;;;;;16.31;45.30;93846.78;5072429;28;20451;-77
2021/04/06 07:18:48;;;;;;;15.40;11.50;;;;;;;16.22;45.15;93838.16;5072718;28;20460;-78
2021/04/06 07:21:17;;;;;;;20.40;12.27;;;;;;;16.27;45.51;93840.22;5072945;28;20523;-78
2021/04/06 07:23:52;;;;;;;16.73;12.00;;;;;;;15.95;45.96;93841.56;5073695;28;20458;-78
2021/04/06 07:26:21;;;;;;;21.13;11.73;;;;;;;15.80;46.33;93845.06;5077493;28;20442;-79
2021/04/06 07:28:47;;;;;;;17.60;12.00;;;;;;;15.93;46.85;93838.28;5076957;28;20478;-78
2021/04/06 07:31:15;;;;;;;19.10;12.27;;;;;;;15.62;47.24;93835.91;5076485;28;20441;-78
2021/04/06 07:33:44;;;;;;;18.80;12.37;;;;;;;15.52;47.57;93830.06;5077033;28;20797;-79
2021/04/06 07:36:13;;;;;;;19.27;12.10;;;;;;;15.65;47.06;93830.25;5076484;28;20437;-78
2021/04/06 07:38:42;;;;;;;20.93;11.73;;;;;;;15.61;47.83;93828.97;5077220;28;20471;-78
2021/04/06 07:41:10;;;;;;;28.50;11.53;;;;;;;15.56;47.74;93826.03;5076979;28;20513;-78
2021/04/06 07:43:38;;;;;;;18.10;12.70;;;;;;;15.80;47.25;93812.50;5076638;28;20532;-78
2021/04/06 07:46:05;;;;;;;14.00;11.20;;;;;;;15.89;45.66;93811.34;5076033;28;20448;-78
2021/04/06 07:48:43;;;;;;;18.20;11.63;;;;;;;15.60;47.08;93816.75;5076893;28;20459;-78
2021/04/06 07:51:18;;;;;;;16.17;10.93;;;;;;;15.73;46.98;93807.13;5057063;28;20543;-78
2021/04/06 07:54:03;;;;;;;17.00;11.63;;;;;;;15.87;47.02;93808.06;5056940;28;20532;-78
2021/04/06 07:56:57;;;;;;;24.23;13.30;;;;;;;16.05;47.47;93811.13;5056487;28;20447;-78
2021/04/06 07:59:52;;;;;;;13.47;10.30;;;;;;;15.99;46.41;93803.94;5034444;28;20479;-78
2021/04/06 08:02:43;;;;;;;14.60;10.70;;;;;;;16.03;45.63;93802.53;5034234;28;20439;-78
2021/04/06 08:05:14;;;;;;;16.50;11.87;;;;;;;15.91;47.15;93796.13;5034262;28;20479;-78
2021/04/06 08:07:40;;;;;;;11.90;10.30;;;;;;;15.95;47.58;93784.16;5001277;28;20444;-78
2021/04/06 08:10:42;;;;;;;14.13;9.73;;;;;;;15.49;47.02;93795.06;5034213;28;20949;-78
2021/04/06 08:13:13;;;;;;;23.53;9.83;;;;;;;15.48;47.54;93793.41;5035336;28;20945;-79
2021/04/06 08:15:40;;;;;;;12.17;9.33;;;;;;;15.58;47.69;93771.97;5018216;28;20474;-78
2021/04/06 08:18:07;;;;;;;15.17;10.37;;;;;;;15.49;48.82;93770.44;5054043;28;20463;-79
2021/04/06 08:20:38;;;;;;;17.20;10.20;;;;;;;15.76;50.84;93767.09;5053909;28;21067;-80
2021/04/06 08:23:07;;;;;;;13.27;9.00;;;;;;;16.01;47.03;93772.00;5054235;28;20828;-79
2021/04/06 08:25:52;;;;;;;15.00;9.50;;;;;;;15.75;46.79;93764.63;5053654;28;20445;-78
2021/04/06 08:28:39;;;;;;;16.80;8.93;;;;;;;15.66;47.21;93760.47;5053111;28;21010;-79
2021/04/06 08:31:33;;;;;;;10.07;8.00;;;;;;;15.32;49.64;93761.91;5053876;28;20442;-79
2021/04/06 08:34:28;;;;;;;15.80;8.60;;;;;;;15.35;49.34;93756.28;5053427;28;20478;-79
2021/04/06 08:37:12;;;;;;;12.17;9.10;;;;;;;15.42;49.34;93749.22;5054225;28;20457;-79
2021/04/06 08:39:39;;;;;;;12.57;8.90;;;;;;;15.55;49.01;93734.50;5055712;28;20445;-79
2021/04/06 08:42:07;;;;;;;14.27;9.17;;;;;;;14.99;49.81;93734.28;5056056;28;20571;-79
2021/04/06 08:44:36;;;;;;;13.83;8.90;;;;;;;15.23;49.73;93731.31;5055920;28;20449;-79
2021/04/06 08:47:04;;;;;;;17.53;9.87;;;;;;;14.93;50.03;93737.66;5036888;28;20823;-79
2021/04/06 08:49:30;;;;;;;13.40;9.47;;;;;;;15.30;49.96;93720.81;5055969;28;20443;-79
2021/04/06 08:51:58;;;;;;;10.00;8.33;;;;;;;15.41;49.34;93713.22;5055427;28;20448;-79
2021/04/06 08:54:26;;;;;;;18.10;11.20;;;;;;;15.51;49.75;93712.91;5055532;28;20969;-79
2021/04/06 08:56:55;;;;;;;14.70;10.00;;;;;;;15.62;50.23;93709.81;5055168;28;20454;-79
2021/04/06 08:59:30;;;;;;;13.83;10.30;;;;;;;15.43;51.06;93716.50;5056081;28;20482;-79
2021/04/06 09:01:59;;;;;;;17.10;11.30;;;;;;;14.99;52.92;93707.88;5055719;28;20483;-79
2021/04/06 09:04:29;;;;;;;18.70;13.10;;;;;;;14.91;54.70;93706.16;5055613;28;20448;-79
2021/04/06 09:06:57;;;;;;;15.67;10.70;;;;;;;14.84;54.09;93706.09;5055440;28;20849;-79
2021/04/06 09:09:24;;;;;;;16.40;10.13;;;;;;;14.75;55.29;93701.09;5020252;28;20437;-80
2021/04/06 09:11:52;;;;;;;14.20;10.60;;;;;;;14.71;55.14;93700.63;5055604;28;20440;-80
2021/04/06 09:14:19;;;;;;;12.07;9.77;;;;;;;14.68;54.48;93679.88;5055093;28;20485;-80
2021/04/06 09:16:46;;;;;;;14.73;10.00;;;;;;;14.79;55.07;93679.41;5054721;28;20445;-80
2021/04/06 09:19:14;;;;;;;12.93;10.10;;;;;;;14.82;55.69;93689.59;5055226;28;20791;-79
2021/04/06 09:21:44;;;;;;;18.63;12.10;;;;;;;14.93;56.44;93674.28;5054697;28;20423;-80
2021/04/06 09:24:12;;;;;;;14.67;10.50;;;;;;;15.14;56.27;93672.47;5054588;28;20446;-79
2021/04/06 09:26:39;;;;;;;12.80;9.80;;;;;;;14.98;55.78;93671.88;5036367;28;20444;-79
2021/04/06 09:29:12;;;;;;;12.73;9.70;;;;;;;14.30;57.24;93667.78;5054868;28;20852;-79
2021/04/06 09:31:41;;;;;;;10.37;8.90;;;;;;;14.36;57.47;93661.75;5054634;28;20447;-80
2021/04/06 09:34:11;;;;;;;10.20;9.20;;;;;;;14.75;58.56;93670.22;5054729;28;20994;-79
2021/04/06 09:36:39;;;;;;;11.57;8.77;;;;;;;14.56;58.59;93660.25;5054478;28;20464;-79
2021/04/06 09:39:08;;;;;;;11.93;8.53;;;;;;;14.27;58.71;93656.59;5055006;28;20475;-79
2021/04/06 09:41:36;;;;;;;13.37;9.07;;;;;;;14.26;59.64;93654.97;5054365;28;20445;-79
2021/04/06 09:44:04;;;;;;;11.63;8.23;;;;;;;14.26;60.82;93654.13;5054487;28;20492;-80
2021/04/06 09:46:35;;;;;;;10.67;7.90;;;;;;;14.41;60.77;93640.91;5054086;28;21005;-79
2021/04/06 09:49:03;;;;;;;11.73;8.43;;;;;;;14.34;59.70;93646.13;5054338;28;20447;-80
2021/04/06 09:51:30;;;;;;;13.13;8.60;;;;;;;14.30;60.74;93638.75;5035828;28;20438;-79
2021/04/06 09:53:56;;;;;;;10.10;8.80;;;;;;;14.45;61.98;93631.66;5054144;28;20913;-80
2021/04/06 09:56:24;;;;;;;8.57;7.43;;;;;;;14.72;59.79;93625.69;5054267;28;20441;-79
2021/04/06 09:58:52;;;;;;;9.47;7.50;;;;;;;14.79;59.15;93626.59;5019135;28;21032;-79
2021/04/06 10:01:20;;;;;;;18.63;6.60;;;;;;;14.88;58.25;93628.09;5054211;28;20940;-79
2021/04/06 10:03:48;;;;;;;7.90;7.13;;;;;;;15.05;58.38;93610.22;5053640;28;20510;-79
2021/04/06 10:06:15;;;;;;;11.20;6.77;;;;;;;14.94;57.83;93605.41;5054139;28;20533;-79
2021/04/06 10:08:42;;;;;;;11.20;7.97;;;;;;;14.98;57.80;93604.03;5053864;28;20966;-80
2021/04/06 10:11:09;;;;;;;10.27;7.10;;;;;;;14.68;57.89;93600.66;5053750;28;20454;-80
2021/04/06 10:13:38;;;;;;;8.83;6.47;;;;;;;14.92;58.98;93593.41;5053784;28;20451;-80
2021/04/06 10:16:07;;;;;;;16.83;7.20;;;;;;;15.03;58.71;93580.50;5054184;28;20476;-80
2021/04/06 10:18:41;;;;;;;10.43;7.93;;;;;;;15.22;57.32;93572.94;5054743;28;20440;-80
2021/04/06 10:21:22;;;;;;;9.50;7.87;;;;;;;15.39;58.60;93559.28;5018914;28;20444;-80
2021/04/06 10:23:49;;;;;;;13.20;7.47;;;;;;;15.49;58.58;93557.09;5054122;28;20449;-79
2021/04/06 10:26:20;;;;;;;12.00;8.00;;;;;;;15.46;57.39;93546.91;5053759;28;20447;-80
2021/04/06 10:28:47;;;;;;;9.33;7.10;;;;;;;15.33;57.06;93546.00;5054049;28;20441;-79
2021/04/06 10:31:14;;;;;;;7.67;6.43;;;;;;;15.22;56.69;93549.16;5053565;28;20435;-79
2021/04/06 10:33:40;;;;;;;13.00;7.70;;;;;;;15.22;58.78;93535.94;5053454;28;20444;-79
2021/04/06 10:36:10;;;;;;;13.20;8.00;;;;;;;15.37;57.36;93528.75;5053697;28;20481;-79
2021/04/06 10:38:39;;;;;;;12.83;7.40;;;;;;;15.49;60.03;93525.38;5053771;28;20486;-80
2021/04/06 10:41:07;;;;;;;15.80;7.43;;;;;;;15.47;56.18;93524.75;5053328;28;20451;-79
2021/04/06 10:43:35;;;;;;;8.80;6.40;;;;;;;15.42;55.29;93519.25;5053769;28;20459;-79
2021/04/06 10:46:07;;;;;;;14.03;7.30;;;;;;;15.38;57.77;93504.78;5053100;28;20452;-79
2021/04/06 10:48:36;;;;;;;12.63;7.57;;;;;;;15.38;57.87;93496.84;5018887;28;20446;-79
2021/04/06 10:51:09;;;;;;;13.87;7.63;;;;;;;15.39;57.24;93498.47;5053415;28;20452;-80
2021/04/06 10:53:39;;;;;;;8.20;7.27;;;;;;;15.45;55.62;93494.25;5053523;28;20452;-79
2021/04/06 10:56:09;;;;;;;8.47;7.53;;;;;;;15.40;55.78;93484.25;5053123;28;20486;-80
2021/04/06 10:58:38;;;;;;;10.83;6.97;;;;;;;15.50;56.14;93490.00;5052856;28;20456;-79
2021/04/06 11:01:09;;;;;;;12.47;6.93;;;;;;;15.46;53.67;93478.19;5053528;28;20492;-80
2021/04/06 11:03:49;;;;;;;12.30;6.47;;;;;;;15.59;54.03;93466.06;5053810;28;20446;-79
2021/04/06 11:06:18;;;;;;;7.43;6.30;;;;;;;15.71;53.73;93467.16;5052854;28;20496;-80
2021/04/06 11:08:46;;;;;;;16.67;6.47;;;;;;;15.85;55.18;93455.63;5053107;28;20492;-80
2021/04/06 11:11:20;;;;;;;8.07;6.03;;;;;;;15.89;55.16;93448.91;5052848;28;20450;-80
2021/04/06 11:13:47;;;;;;;9.43;6.23;;;;;;;15.85;54.55;93447.69;5052584;28;20445;-80
2021/04/06 11:16:14;;;;;;;12.53;7.77;;;;;;;15.94;54.16;93443.88;5052592;28;20493;-80
2021/04/06 11:18:41;;;;;;;12.87;7.20;;;;;;;15.94;54.32;93445.69;5052533;28;20450;-80
2021/04/06 11:21:08;;;;;;;12.93;7.37;;;;;;;16.01;54.48;93434.13;5065196;28;20445;-79
2021/04/06 11:23:35;;;;;;;15.07;8.13;;;;;;;16.10;54.58;93432.91;5072116;28;20490;-81
2021/04/06 11:26:01;;;;;;;10.23;6.97;;;;;;;16.15;53.60;93419.09;5072642;28;20455;-80
2021/04/06 11:28:28;;;;;;;8.73;6.40;;;;;;;16.24;52.93;93423.19;5072299;28;20905;-82
2021/04/06 11:30:54;;;;;;;11.43;7.13;;;;;;;16.31;52.77;93416.06;5072670;28;20449;-81
2021/04/06 11:33:21;;;;;;;12.57;6.37;;;;;;;16.46;53.05;93418.53;5073348;28;20497;-84
2021/04/06 11:35:48;;;;;;;8.13;6.90;;;;;;;16.51;50.83;93413.47;5072226;28;20498;-79
2021/04/06 11:38:15;;;;;;;10.63;6.33;;;;;;;16.40;50.38;93406.91;5072625;28;20480;-81
2021/04/06 11:40:42;;;;;;;10.03;6.70;;;;;;;16.28;50.02;93408.53;5073503;28;20474;-82
2021/04/06 11:43:08;;;;;;;12.77;6.67;;;;;;;16.42;50.62;93398.78;5073171;28;20450;-81
2021/04/06 11:45:34;;;;;;;8.10;6.53;;;;;;;16.54;48.84;93397.19;5072602;28;20437;-82
2021/04/06 11:48:00;;;;;;;12.17;7.03;;;;;;;16.70;48.69;93391.50;5072827;28;20445;-80